Mertens, Texas
Current Conditions -  °F | °C
As of 6:15 PM on Wednesday 22 Oct 2014 (Local Time) from KINJ Reporting Station
Clear Clear  
Wind Chill: 76°   Ceiling: Unl
Heat Index: 78°   Visibility: 10mi
Dew Point: 56°   Wind: 5mph
Humidity: 49%   Direction: 80°E
Pressure: 30.08"   Gusts: NA
Location:  32.06°N, 96.9°W
Report Text: KINJ 222315Z AUTO 08004KT 10SM CLR 25/13 A3008 RMK AO2 T02470133
Loading
Personal Weather Stations






























Interactive Weather Map
Tropical Storm Tracking
New forecast layout! Learn more

10-Day Weather Forecast

Advertisements
Track Severe Weather on mobile